Time;durP1;ratioP1;P1;durP2;ratioP2;P2;SDS_P1;SDS_P2;PMS_P1;PMS_P2;Temp;Humidity;BMP_temperature;BMP_pressure;BME280_temperature;BME280_humidity;BME280_pressure;Samples;Min_cycle;Max_cycle;Signal;HPM_P1;HPM_P2
2022/08/02 00:02:58;;;;;;;33.60;31.67;;;;;;;21.07;100.00;101647.47;2017384;71;30952;-75
2022/08/02 00:08:44;;;;;;;35.37;33.67;;;;;;;21.11;100.00;101638.56;2000622;71;30990;-76
2022/08/02 00:14:29;;;;;;;39.73;37.73;;;;;;;20.98;100.00;101640.17;2016805;71;30899;-76
2022/08/02 00:20:14;;;;;;;40.23;38.13;;;;;;;20.90;100.00;101641.87;2017393;71;31386;-76
2022/08/02 00:25:59;;;;;;;37.90;35.80;;;;;;;21.00;100.00;101647.17;2011099;71;30877;-75
2022/08/02 00:31:43;;;;;;;40.70;38.50;;;;;;;20.78;100.00;101634.09;2011391;71;31474;-75
2022/08/02 00:37:27;;;;;;;41.40;38.93;;;;;;;20.81;100.00;101640.47;2013359;71;30951;-75
2022/08/02 00:43:12;;;;;;;46.03;43.50;;;;;;;20.87;100.00;101631.25;2015097;71;33401;-75
2022/08/02 00:48:57;;;;;;;48.17;45.40;;;;;;;20.69;100.00;101630.45;2004842;71;31330;-75
2022/08/02 00:54:41;;;;;;;42.43;40.07;;;;;;;20.70;100.00;101632.70;2007755;71;30959;-76
2022/08/02 01:00:25;;;;;;;46.23;43.83;;;;;;;20.61;100.00;101620.00;1998886;71;30835;-76
2022/08/02 01:06:10;;;;;;;48.83;46.13;;;;;;;20.60;100.00;101618.34;2009856;71;31422;-76
2022/08/02 01:11:56;;;;;;;49.17;46.27;;;;;;;20.53;100.00;101616.61;2016890;71;31496;-76
2022/08/02 01:17:45;;;;;;;48.93;46.33;;;;;;;20.62;100.00;101618.02;2007928;71;30937;-76
2022/08/02 01:20:23;;;;;;;48.83;46.13;;;;;;;20.53;100.00;101618.02;1962840;72;24684;-77
2022/08/02 01:23:04;;;;;;;48.83;46.03;;;;;;;20.60;100.00;101613.27;1982510;72;24621;-77
2022/08/02 01:25:43;;;;;;;52.03;49.23;;;;;;;20.58;100.00;101608.55;1967926;72;24258;-77
2022/08/02 01:28:22;;;;;;;51.67;48.77;;;;;;;20.52;100.00;101603.66;1958236;72;24148;-77
2022/08/02 01:30:55;;;;;;;54.33;51.43;;;;;;;20.45;100.00;101608.38;1974595;72;24655;-77
2022/08/02 01:33:28;;;;;;;55.90;52.70;;;;;;;20.43;100.00;101607.06;1963341;72;24147;-77
2022/08/02 01:39:17;;;;;;;55.80;52.60;;;;;;;20.43;100.00;101608.47;2013423;71;32983;-77
2022/08/02 01:45:03;;;;;;;59.83;56.53;;;;;;;20.30;100.00;101604.66;2016746;71;30889;-76
2022/08/02 01:50:50;;;;;;;61.23;57.73;;;;;;;20.37;100.00;101597.93;2000467;71;31423;-75
2022/08/02 01:56:37;;;;;;;63.30;60.00;;;;;;;20.23;100.00;101613.36;1994873;71;30862;-75
2022/08/02 02:02:26;;;;;;;65.80;62.47;;;;;;;20.30;100.00;101609.47;1995590;71;30838;-76
2022/08/02 02:08:18;;;;;;;68.77;65.27;;;;;;;20.22;100.00;101603.23;2008307;71;30964;-76
2022/08/02 02:14:05;;;;;;;68.43;64.83;;;;;;;20.11;100.00;101592.03;2015094;71;31417;-76
2022/08/02 02:19:51;;;;;;;66.93;63.50;;;;;;;20.13;100.00;101577.00;2016461;71;31497;-75
2022/08/02 02:25:36;;;;;;;67.80;64.23;;;;;;;20.06;100.00;101579.50;1991444;71;31002;-76
2022/08/02 02:31:23;;;;;;;73.87;70.13;;;;;;;20.06;100.00;101572.45;2002931;71;31044;-75
2022/08/02 02:37:13;;;;;;;71.73;68.13;;;;;;;20.07;100.00;101558.60;1997116;71;30891;-76
2022/08/02 02:43:01;;;;;;;70.10;66.27;;;;;;;20.04;100.00;101555.02;2014901;71;30914;-74
2022/08/02 02:48:47;;;;;;;72.33;68.47;;;;;;;20.08;100.00;101560.23;2014804;71;30893;-74
2022/08/02 02:54:32;;;;;;;73.57;69.63;;;;;;;20.12;100.00;101547.12;1998671;71;31400;-76
2022/08/02 03:01:26;;;;;;;73.63;69.63;;;;;;;20.03;100.00;101546.30;2000778;71;30839;-76
2022/08/02 03:06:03;;;;;;;79.20;75.00;;;;;;;19.99;100.00;101541.91;2011884;71;32838;-76
2022/08/02 03:11:48;;;;;;;74.13;70.00;;;;;;;19.96;100.00;101540.59;2009726;71;30940;-76
2022/08/02 03:17:45;;;;;;;77.33;73.00;;;;;;;19.90;100.00;101526.39;1991608;71;30858;-75
2022/08/02 03:23:31;;;;;;;77.00;72.70;;;;;;;19.82;100.00;101530.05;2000928;71;30905;-74
2022/08/02 03:29:15;;;;;;;76.87;72.53;;;;;;;19.79;100.00;101536.36;2014888;71;30960;-77
2022/08/02 03:35:01;;;;;;;78.10;73.73;;;;;;;19.82;100.00;101530.62;2016783;71;30888;-75
2022/08/02 03:40:48;;;;;;;79.03;74.60;;;;;;;19.72;100.00;101521.94;2008138;71;30922;-74
2022/08/02 03:46:33;;;;;;;78.57;73.93;;;;;;;19.60;100.00;101530.19;2008276;71;31430;-75
2022/08/02 03:52:19;;;;;;;76.77;72.17;;;;;;;19.55;100.00;101533.19;2018516;71;30910;-77
2022/08/02 03:58:03;;;;;;;75.07;70.57;;;;;;;19.56;100.00;101523.55;2004602;71;31337;-75
2022/08/02 04:03:46;;;;;;;73.70;69.23;;;;;;;19.44;100.00;101520.55;1991720;71;31383;-75
2022/08/02 04:09:30;;;;;;;75.73;71.13;;;;;;;19.49;100.00;101511.95;1997672;71;30842;-75
2022/08/02 04:15:16;;;;;;;75.23;70.70;;;;;;;19.49;100.00;101520.41;2012320;71;31354;-76
2022/08/02 04:21:05;;;;;;;77.57;72.83;;;;;;;19.51;100.00;101524.53;2004429;70;30827;-75
2022/08/02 04:26:51;;;;;;;77.00;72.27;;;;;;;19.52;100.00;101521.98;2011842;71;33261;-75
2022/08/02 04:32:37;;;;;;;76.73;71.97;;;;;;;19.50;100.00;101523.48;1998566;71;30963;-75
2022/08/02 04:38:23;;;;;;;78.90;74.17;;;;;;;19.48;100.00;101530.84;2016864;71;31496;-75
2022/08/02 04:44:08;;;;;;;75.17;70.40;;;;;;;19.49;100.00;101529.69;2016723;71;31012;-74
2022/08/02 04:49:53;;;;;;;74.47;69.67;;;;;;;19.44;100.00;101541.11;2011818;71;31439;-76
2022/08/02 04:55:37;;;;;;;76.13;71.33;;;;;;;19.53;100.00;101544.78;2016914;71;31022;-76
2022/08/02 05:01:21;;;;;;;79.67;74.77;;;;;;;19.63;100.00;101546.46;1989860;71;30904;-77
2022/08/02 05:07:06;;;;;;;76.53;71.73;;;;;;;19.71;100.00;101545.64;2011627;71;33446;-76
2022/08/02 05:12:50;;;;;;;74.27;69.37;;;;;;;19.74;100.00;101533.69;2016874;71;31492;-77
2022/08/02 05:18:36;;;;;;;76.80;71.87;;;;;;;19.77;100.00;101548.53;1999499;71;30852;-75
2022/08/02 05:24:20;;;;;;;75.10;70.30;;;;;;;19.83;100.00;101545.81;2013821;71;31449;-75
2022/08/02 05:30:09;;;;;;;75.90;71.10;;;;;;;19.89;100.00;101540.27;2015221;71;30957;-75
2022/08/02 05:36:02;;;;;;;74.30;69.33;;;;;;;19.87;100.00;101542.58;1992135;71;30895;-76
2022/08/02 05:41:46;;;;;;;72.70;67.90;;;;;;;19.99;100.00;101540.49;1991541;71;30920;-74
2022/08/02 05:47:30;;;;;;;71.47;66.47;;;;;;;20.10;100.00;101546.07;2016713;71;30985;-76
2022/08/02 05:53:23;;;;;;;73.70;68.80;;;;;;;20.28;100.00;101549.10;2000846;71;30889;-75
2022/08/02 05:59:14;;;;;;;75.43;70.57;;;;;;;20.39;100.00;101552.45;2015095;71;31408;-76
2022/08/02 06:01:47;;;;;;;77.07;72.17;;;;;;;20.41;100.00;101552.35;1970140;72;24245;-76
2022/08/02 06:07:32;;;;;;;71.40;66.83;;;;;;;20.54;100.00;101535.59;2013418;71;30975;-76
2022/08/02 06:13:22;;;;;;;72.23;67.47;;;;;;;20.53;100.00;101539.56;2015044;71;30981;-77
2022/08/02 06:19:08;;;;;;;72.50;67.83;;;;;;;20.67;100.00;101543.83;2013259;71;31037;-72
2022/08/02 06:24:55;;;;;;;76.63;71.73;;;;;;;20.92;100.00;101539.86;2011841;71;30975;-75
2022/08/02 06:30:43;;;;;;;75.00;69.67;;;;;;;21.49;100.00;101530.34;2000378;71;30949;-74
2022/08/02 06:36:33;;;;;;;73.78;69.20;;;;;;;21.57;100.00;101526.63;2002345;71;30884;-76
2022/08/02 06:42:21;;;;;;;76.30;71.45;;;;;;;22.00;100.00;101529.99;2011919;71;30875;-74
2022/08/02 06:48:07;;;;;;;75.42;71.17;;;;;;;21.89;100.00;101534.97;1998579;71;30903;-72
2022/08/02 06:53:52;;;;;;;74.47;70.10;;;;;;;22.14;100.00;101533.95;2009610;71;30883;-72
2022/08/02 06:59:36;;;;;;;70.62;66.42;;;;;;;22.19;100.00;101526.09;2011451;71;30918;-73
2022/08/02 07:05:21;;;;;;;67.82;63.68;;;;;;;22.23;100.00;101521.97;2010230;71;30945;-73
2022/08/02 07:11:06;;;;;;;69.03;65.12;;;;;;;22.32;100.00;101512.80;2016976;71;30894;-74
2022/08/02 07:16:53;;;;;;;70.45;66.35;;;;;;;22.51;100.00;101510.84;1991772;71;31007;-75
2022/08/02 07:22:37;;;;;;;74.58;69.90;;;;;;;22.21;100.00;101508.73;2016834;71;31018;-74
2022/08/02 07:28:22;;;;;;;69.67;65.52;;;;;;;22.38;100.00;101519.88;2008365;71;30885;-74
2022/08/02 07:34:07;;;;;;;70.75;66.60;;;;;;;22.58;100.00;101513.36;2008352;71;30836;-73
2022/08/02 07:39:51;;;;;;;69.42;65.45;;;;;;;22.66;100.00;101515.27;2018838;71;30912;-77
2022/08/02 07:45:35;;;;;;;66.37;62.58;;;;;;;22.93;100.00;101517.23;2011706;71;31002;-76
2022/08/02 07:51:20;;;;;;;71.82;67.95;;;;;;;22.82;100.00;101520.27;2017014;71;30999;-76
2022/08/02 07:57:05;;;;;;;71.40;67.37;;;;;;;23.06;100.00;101517.47;2004606;71;31008;-75
2022/08/02 08:02:49;;;;;;;68.80;64.80;;;;;;;22.95;100.00;101511.43;1955720;72;31069;-74
2022/08/02 08:08:35;;;;;;;69.20;65.30;;;;;;;23.15;100.00;101521.83;2010134;71;30899;-75
2022/08/02 08:14:19;;;;;;;70.00;65.62;;;;;;;23.40;100.00;101519.83;2011549;71;31514;-75
2022/08/02 08:20:09;;;;;;;70.70;66.80;;;;;;;23.19;100.00;101516.89;2005804;71;31530;-75
2022/08/02 08:25:53;;;;;;;68.07;64.37;;;;;;;23.14;100.00;101531.53;1995369;71;31024;-76
2022/08/02 08:31:38;;;;;;;64.07;60.28;;;;;;;23.16;100.00;101531.16;2000374;71;30953;-76
2022/08/02 08:37:22;;;;;;;60.65;57.13;;;;;;;23.45;100.00;101528.69;2010178;71;31338;-75
2022/08/02 08:43:07;;;;;;;54.33;51.37;;;;;;;23.46;100.00;101531.17;2002511;71;31528;-75
2022/08/02 08:52:02;;;;;;;58.95;55.65;;;;;;;23.41;100.00;101542.72;2053123;69;30556;-76
2022/08/02 08:54:34;;;;;;;57.00;53.90;;;;;;;23.31;100.00;101536.72;1941258;73;24234;-77
2022/08/02 08:57:07;;;;;;;58.98;55.70;;;;;;;23.33;100.00;101536.59;1934756;73;24193;-77
2022/08/02 08:59:38;;;;;;;60.20;57.00;;;;;;;23.30;100.00;101536.48;1935881;74;24572;-74
2022/08/02 09:02:10;;;;;;;57.83;54.53;;;;;;;23.40;100.00;101538.26;1937840;73;24245;-75
2022/08/02 09:04:40;;;;;;;58.38;55.10;;;;;;;23.53;100.00;101530.59;1933444;74;24155;-74
2022/08/02 09:07:13;;;;;;;58.92;55.50;;;;;;;23.67;100.00;101531.02;1902651;75;24159;-75
2022/08/02 09:09:43;;;;;;;58.40;55.30;;;;;;;23.74;100.00;101539.78;1932113;74;24238;-76
2022/08/02 09:12:18;;;;;;;57.62;54.60;;;;;;;23.54;100.00;101540.73;1902618;74;24200;-76
2022/08/02 09:14:48;;;;;;;55.43;52.43;;;;;;;23.56;100.00;101532.13;1931821;74;24219;-75
2022/08/02 09:17:20;;;;;;;56.65;53.60;;;;;;;23.65;100.00;101538.25;1897519;74;24207;-75
2022/08/02 09:23:21;;;;;;;54.03;51.02;;;;;;;23.71;100.00;101534.80;1995272;71;30796;-74
2022/08/02 09:29:13;;;;;;;57.48;54.30;;;;;;;23.88;100.00;101518.91;2016901;71;30890;-76
2022/08/02 09:34:58;;;;;;;52.35;49.45;;;;;;;23.91;100.00;101525.31;2008327;71;31375;-75
2022/08/02 09:40:43;;;;;;;52.90;50.00;;;;;;;23.83;100.00;101515.52;2004125;71;30955;-73
2022/08/02 09:46:29;;;;;;;54.35;51.25;;;;;;;23.94;100.00;101515.24;2005615;71;30862;-74
2022/08/02 09:52:14;;;;;;;55.63;52.73;;;;;;;24.15;100.00;101522.14;1991579;71;30813;-74
2022/08/02 09:57:58;;;;;;;51.83;49.05;;;;;;;24.32;100.00;101517.59;2006537;71;30956;-76
2022/08/02 10:03:57;;;;;;;50.25;47.25;;;;;;;24.32;100.00;101531.20;1999027;71;31514;-74
2022/08/02 10:09:44;;;;;;;52.38;49.50;;;;;;;24.35;100.00;101523.38;2004810;71;31410;-75
2022/08/02 10:15:29;;;;;;;50.58;47.83;;;;;;;24.30;100.00;101523.62;2000992;71;31326;-76
2022/08/02 10:21:20;;;;;;;50.20;47.40;;;;;;;24.17;100.00;101523.48;2004577;71;30828;-74
2022/08/02 10:27:08;;;;;;;49.80;46.95;;;;;;;24.22;100.00;101520.95;2012164;71;31355;-74
2022/08/02 10:32:56;;;;;;;48.20;45.52;;;;;;;24.30;100.00;101532.77;2013091;71;30988;-75
2022/08/02 10:38:41;;;;;;;48.73;46.10;;;;;;;24.40;100.00;101527.38;2000896;71;30908;-75
2022/08/02 10:44:30;;;;;;;46.60;43.92;;;;;;;24.32;100.00;101526.12;2006532;71;31341;-75
2022/08/02 10:50:56;;;;;;;49.45;46.42;;;;;;;24.44;100.00;101532.56;2006199;71;30907;-74
2022/08/02 10:56:48;;;;;;;50.70;48.10;;;;;;;24.28;100.00;101530.28;2015149;71;31060;-75
2022/08/02 11:02:45;;;;;;;50.45;47.75;;;;;;;24.40;100.00;101533.05;1980350;72;31506;-74
2022/08/02 11:08:34;;;;;;;49.67;47.15;;;;;;;24.51;100.00;101527.69;1995448;71;31347;-76
2022/08/02 11:14:19;;;;;;;49.30;46.50;;;;;;;24.55;100.00;101527.78;2013331;71;30917;-74
2022/08/02 11:20:27;;;;;;;50.10;47.30;;;;;;;24.34;100.00;101528.02;2016626;71;30901;-74
2022/08/02 11:26:45;;;;;;;53.40;50.60;;;;;;;24.39;100.00;101529.15;2008359;71;30980;-75
2022/08/02 11:32:34;;;;;;;53.60;50.70;;;;;;;24.37;100.00;101526.69;2013651;71;30857;-75
2022/08/02 11:38:20;;;;;;;55.30;52.17;;;;;;;24.44;100.00;101520.37;2011829;71;31383;-75
2022/08/02 11:44:05;;;;;;;52.70;49.95;;;;;;;24.51;100.00;101526.86;2009813;71;31406;-77
2022/08/02 11:49:50;;;;;;;50.80;48.00;;;;;;;24.44;100.00;101519.78;2004340;71;31437;-75
2022/08/02 11:55:36;;;;;;;55.03;52.13;;;;;;;24.69;100.00;101516.81;2006490;71;31295;-75
2022/08/02 12:01:28;;;;;;;49.35;46.75;;;;;;;24.79;100.00;101515.66;2015013;71;30981;-75
2022/08/02 12:07:14;;;;;;;50.12;47.43;;;;;;;24.89;100.00;101508.65;2008046;71;30885;-76
2022/08/02 12:13:07;;;;;;;54.85;51.70;;;;;;;24.73;100.00;101519.16;2005831;71;30882;-74
2022/08/02 12:24:58;;;;;;;53.83;50.95;;;;;;;24.99;100.00;101502.39;2003906;71;32315;-76
2022/08/02 12:30:55;;;;;;;53.08;50.48;;;;;;;24.98;100.00;101503.61;2010099;71;30873;-76
2022/08/02 12:36:41;;;;;;;54.40;51.63;;;;;;;25.01;100.00;101498.60;2012389;71;31334;-74
2022/08/02 12:42:28;;;;;;;48.65;46.10;;;;;;;25.06;100.00;101491.81;2009792;71;31458;-74
2022/08/02 12:48:14;;;;;;;47.60;45.05;;;;;;;24.94;100.00;101492.13;2006642;71;31316;-75
2022/08/02 12:54:12;;;;;;;45.43;42.78;;;;;;;25.06;100.00;101484.70;2002820;71;30977;-76
2022/08/02 12:59:57;;;;;;;43.17;40.83;;;;;;;25.20;100.00;101485.86;2013485;71;30944;-74
2022/08/02 13:05:42;;;;;;;42.80;40.30;;;;;;;25.19;100.00;101481.98;2009409;71;30899;-76
2022/08/02 13:11:30;;;;;;;41.85;39.45;;;;;;;25.18;100.00;101471.80;2000239;71;30887;-75
2022/08/02 13:17:15;;;;;;;42.73;40.08;;;;;;;25.27;100.00;101478.95;1998834;71;30890;-78
2022/08/02 13:22:59;;;;;;;42.03;39.63;;;;;;;25.36;100.00;101468.79;2018522;71;30900;-77
2022/08/02 13:28:45;;;;;;;40.95;38.65;;;;;;;25.36;100.00;101466.77;2011211;71;30964;-74
2022/08/02 13:34:36;;;;;;;43.50;41.20;;;;;;;25.34;100.00;101472.00;2015199;71;31014;-76
2022/08/02 13:40:21;;;;;;;44.20;41.83;;;;;;;25.16;100.00;101477.05;1997125;71;30938;-76
2022/08/02 13:46:07;;;;;;;43.83;41.50;;;;;;;25.18;100.00;101466.11;2015362;71;31003;-76
2022/08/02 13:51:51;;;;;;;42.53;40.23;;;;;;;25.21;100.00;101456.24;2006493;71;31370;-74
2022/08/02 13:57:36;;;;;;;42.00;39.70;;;;;;;25.30;100.00;101456.04;1999252;71;31404;-75
2022/08/02 14:03:20;;;;;;;46.88;44.10;;;;;;;25.15;100.00;101464.84;2002428;71;31424;-74
2022/08/02 14:09:05;;;;;;;49.75;47.08;;;;;;;25.04;100.00;101460.91;2015296;71;32379;-75
2022/08/02 14:14:50;;;;;;;47.13;44.45;;;;;;;25.11;100.00;101442.61;2006660;71;30888;-77
2022/08/02 14:20:35;;;;;;;50.25;47.60;;;;;;;25.39;100.00;101435.33;2013424;71;31408;-76
2022/08/02 14:26:20;;;;;;;47.38;44.58;;;;;;;25.42;100.00;101432.33;2009517;71;31806;-75
2022/08/02 14:32:06;;;;;;;42.55;40.15;;;;;;;25.52;100.00;101423.22;2000241;71;31919;-75
2022/08/02 14:37:51;;;;;;;45.28;42.67;;;;;;;25.53;100.00;101423.45;1995731;71;31303;-75
2022/08/02 14:49:40;;;;;;;44.25;41.90;;;;;;;25.68;100.00;101431.95;2005647;71;31976;-75
2022/08/02 14:55:25;;;;;;;42.73;40.35;;;;;;;25.68;100.00;101429.09;2006274;71;31817;-75
2022/08/02 15:01:10;;;;;;;45.78;43.00;;;;;;;25.65;100.00;101429.85;2016713;71;31892;-73
2022/08/02 15:06:55;;;;;;;45.58;42.45;;;;;;;25.59;100.00;101413.44;1991414;71;30833;-73
2022/08/02 15:12:42;;;;;;;44.08;41.65;;;;;;;25.61;100.00;101412.48;2009463;71;32454;-73
2022/08/02 15:18:27;;;;;;;43.42;40.92;;;;;;;25.64;100.00;101411.12;1991587;71;30853;-73
2022/08/02 15:24:12;;;;;;;44.85;42.45;;;;;;;25.73;100.00;101420.27;2000482;71;30977;-75
2022/08/02 15:29:59;;;;;;;46.33;43.75;;;;;;;25.65;100.00;101414.20;2014927;71;31864;-74
2022/08/02 15:35:44;;;;;;;45.83;43.30;;;;;;;25.65;100.00;101413.37;2016714;71;31015;-75
2022/08/02 15:41:29;;;;;;;46.02;43.42;;;;;;;25.63;100.00;101415.78;2016787;71;31852;-75
2022/08/02 15:47:14;;;;;;;48.10;45.20;;;;;;;25.53;100.00;101415.77;2000930;71;32413;-76
2022/08/02 15:53:01;;;;;;;49.38;46.70;;;;;;;25.48;100.00;101413.78;2011457;71;31478;-76
2022/08/02 15:58:46;;;;;;;46.45;43.40;;;;;;;25.59;100.00;101410.59;2003884;71;30899;-75
2022/08/02 16:04:30;;;;;;;47.00;44.30;;;;;;;25.72;100.00;101404.98;2015100;71;31878;-75
2022/08/02 16:10:15;;;;;;;45.80;43.40;;;;;;;25.85;100.00;101393.66;2000590;71;31818;-75
2022/08/02 16:16:01;;;;;;;46.73;44.13;;;;;;;25.89;100.00;101393.13;2006885;71;31414;-76
2022/08/02 16:21:47;;;;;;;46.63;43.78;;;;;;;25.76;100.00;101393.06;2013082;71;30912;-76
2022/08/02 16:27:31;;;;;;;46.45;44.03;;;;;;;25.63;100.00;101390.18;2018519;71;31053;-77
2022/08/02 16:33:18;;;;;;;47.73;44.98;;;;;;;25.61;100.00;101391.97;2009308;71;31859;-75
2022/08/02 16:39:04;;;;;;;45.40;42.60;;;;;;;25.64;100.00;101383.27;2000730;71;31917;-75
2022/08/02 16:44:49;;;;;;;47.20;44.53;;;;;;;25.59;100.00;101387.23;2007468;71;31857;-75
2022/08/02 16:50:34;;;;;;;47.95;45.05;;;;;;;25.70;100.00;101376.91;1997152;71;32447;-76
2022/08/02 16:56:19;;;;;;;47.78;45.08;;;;;;;25.70;100.00;101386.05;2007662;71;31463;-80
2022/08/02 17:02:05;;;;;;;46.88;44.03;;;;;;;25.67;100.00;101376.84;1998869;71;31864;-75
2022/08/02 17:07:51;;;;;;;47.05;44.00;;;;;;;25.66;100.00;101375.19;2001132;71;30833;-81
2022/08/02 17:13:36;;;;;;;47.85;45.00;;;;;;;25.57;100.00;101364.04;2004474;71;31993;-82
2022/08/02 17:19:28;;;;;;;48.68;45.85;;;;;;;25.53;100.00;101370.25;2010196;71;31349;-81
2022/08/02 17:25:22;;;;;;;48.10;45.30;;;;;;;25.45;100.00;101361.31;1911939;73;30987;-79
2022/08/02 17:31:08;;;;;;;47.98;44.93;;;;;;;25.42;100.00;101358.37;1991752;71;31795;-77
2022/08/02 17:36:56;;;;;;;48.33;45.48;;;;;;;25.50;100.00;101354.50;2014785;70;31394;-86
2022/08/02 17:42:41;;;;;;;49.00;46.30;;;;;;;25.53;100.00;101351.76;2002683;71;31803;-86
2022/08/02 17:49:14;;;;;;;48.13;44.88;;;;;;;25.51;100.00;101356.95;2004961;71;31805;-84
2022/08/02 17:54:17;;;;;;;48.17;45.05;;;;;;;25.47;100.00;101351.80;2006945;71;31415;-85
2022/08/02 18:00:08;;;;;;;48.38;45.25;;;;;;;25.41;100.00;101346.79;2017086;71;30890;-86
2022/08/02 18:05:58;;;;;;;49.85;46.35;;;;;;;25.32;100.00;101354.12;2000463;71;30918;-88
2022/08/02 18:11:46;;;;;;;50.33;46.92;;;;;;;25.26;100.00;101342.80;2008082;71;30961;-84
2022/08/02 18:17:35;;;;;;;50.78;47.80;;;;;;;25.13;100.00;101350.64;2053406;69;30788;-88
2022/08/02 18:23:24;;;;;;;49.80;46.90;;;;;;;25.26;100.00;101337.11;2051120;69;30907;-86
2022/08/02 18:29:12;;;;;;;49.00;46.08;;;;;;;25.25;100.00;101349.08;2009741;71;30873;-78
2022/08/02 18:34:59;;;;;;;49.67;46.60;;;;;;;25.19;100.00;101346.92;2001169;71;33231;-75
2022/08/02 18:40:44;;;;;;;48.42;45.10;;;;;;;24.99;100.00;101344.63;2007659;71;30964;-80
2022/08/02 18:46:37;;;;;;;48.23;45.17;;;;;;;25.20;100.00;101340.05;2008452;71;31473;-78
2022/08/02 18:52:26;;;;;;;48.25;45.12;;;;;;;25.08;100.00;101340.98;2019511;70;31438;-84
2022/08/02 18:58:18;;;;;;;51.35;48.02;;;;;;;24.85;100.00;101347.98;2006307;71;31964;-81
2022/08/02 19:04:05;;;;;;;51.60;48.40;;;;;;;24.78;100.00;101342.08;2010109;71;30834;-80
2022/08/02 19:09:54;;;;;;;52.20;48.73;;;;;;;24.58;100.00;101339.55;1995881;71;31774;-79
2022/08/02 19:15:41;;;;;;;54.30;50.85;;;;;;;24.55;100.00;101331.78;2006890;71;31469;-80
2022/08/02 19:21:28;;;;;;;52.35;49.00;;;;;;;24.45;100.00;101341.67;2006846;71;30989;-80
2022/08/02 19:27:13;;;;;;;53.25;50.17;;;;;;;24.55;100.00;101336.87;2003351;71;31871;-79
2022/08/02 19:32:59;;;;;;;52.58;49.27;;;;;;;24.55;100.00;101345.98;2019125;71;30973;-80
2022/08/02 19:38:45;;;;;;;55.33;51.65;;;;;;;24.28;100.00;101352.81;2002963;71;32272;-80
2022/08/02 19:44:31;;;;;;;54.50;50.88;;;;;;;24.20;100.00;101354.41;2005199;71;32307;-77
2022/08/02 19:50:20;;;;;;;55.05;51.42;;;;;;;24.16;100.00;101344.98;2011480;71;30948;-79
2022/08/02 19:56:06;;;;;;;57.73;54.15;;;;;;;24.08;100.00;101346.78;2009834;71;31452;-79
2022/08/02 20:01:52;;;;;;;56.92;53.23;;;;;;;23.80;100.00;101351.66;1991712;71;30809;-79
2022/08/02 20:07:41;;;;;;;54.35;51.05;;;;;;;23.95;100.00;101349.46;1997165;71;31003;-78
2022/08/02 20:13:26;;;;;;;55.65;51.73;;;;;;;23.91;100.00;101351.38;2011681;71;32426;-79
2022/08/02 20:19:12;;;;;;;55.92;52.23;;;;;;;23.75;100.00;101362.67;2011595;71;31478;-79
2022/08/02 20:24:58;;;;;;;57.70;53.90;;;;;;;23.93;100.00;101363.17;2000448;71;31397;-80
2022/08/02 20:30:44;;;;;;;64.77;60.83;;;;;;;23.12;100.00;101368.08;2001210;71;31345;-79
2022/08/02 20:36:29;;;;;;;66.53;62.35;;;;;;;22.96;100.00;101372.00;2017143;71;31346;-80
2022/08/02 20:42:15;;;;;;;62.15;58.20;;;;;;;22.94;100.00;101378.02;2004366;71;30936;-79
2022/08/02 20:48:00;;;;;;;67.42;63.13;;;;;;;22.81;100.00;101375.55;2008867;71;31449;-79
2022/08/02 20:53:46;;;;;;;69.80;65.22;;;;;;;22.78;100.00;101377.09;2006619;71;31423;-79
2022/08/02 20:59:31;;;;;;;69.25;64.95;;;;;;;22.53;100.00;101379.08;2017071;71;30883;-79
2022/08/02 21:05:18;;;;;;;68.87;64.50;;;;;;;22.57;100.00;101377.19;1995705;71;33273;-80
2022/08/02 21:11:03;;;;;;;70.57;65.75;;;;;;;22.49;100.00;101378.13;2016877;71;31388;-78
2022/08/02 21:16:49;;;;;;;71.33;66.75;;;;;;;22.27;100.00;101379.16;2008063;71;30947;-88
2022/08/02 21:22:35;;;;;;;72.62;68.20;;;;;;;22.19;100.00;101379.51;2002165;71;30934;-81
2022/08/02 21:28:20;;;;;;;73.70;68.78;;;;;;;22.15;100.00;101374.31;2016886;71;30924;-83
2022/08/02 21:34:06;;;;;;;73.80;69.30;;;;;;;21.88;100.00;101370.66;2011993;71;30967;-77
2022/08/02 21:39:52;;;;;;;79.85;74.82;;;;;;;21.84;100.00;101372.53;2009948;71;31311;-76
2022/08/02 21:45:39;;;;;;;75.85;71.33;;;;;;;21.84;100.00;101369.13;1986906;71;31390;-77
2022/08/02 21:51:23;;;;;;;76.45;71.57;;;;;;;21.59;100.00;101375.28;2005984;71;31021;-76
2022/08/02 21:57:08;;;;;;;74.07;69.15;;;;;;;21.56;100.00;101373.75;2016893;70;30893;-80
2022/08/02 22:02:53;;;;;;;76.20;71.82;;;;;;;21.47;100.00;101380.06;1968031;72;31043;-82
2022/08/02 22:08:44;;;;;;;79.00;74.07;;;;;;;21.47;100.00;101369.58;2015020;71;31490;-82
2022/08/02 22:14:29;;;;;;;75.17;70.47;;;;;;;21.48;100.00;101363.34;2019070;71;30979;-80
2022/08/02 22:20:15;;;;;;;73.70;69.07;;;;;;;21.28;100.00;101356.52;1991803;71;31453;-81
2022/08/02 22:26:01;;;;;;;73.78;69.12;;;;;;;21.40;100.00;101353.75;1974037;72;30971;-81
2022/08/02 22:31:47;;;;;;;75.52;70.55;;;;;;;21.19;100.00;101357.17;2015587;71;30951;-81
2022/08/02 22:37:36;;;;;;;73.90;69.15;;;;;;;21.09;100.00;101344.27;1995585;71;30894;-83
2022/08/02 22:43:25;;;;;;;76.72;71.82;;;;;;;21.14;100.00;101349.72;2010151;71;30861;-82
2022/08/02 22:49:10;;;;;;;78.53;73.53;;;;;;;21.01;100.00;101347.16;1991896;71;30927;-82
2022/08/02 22:54:55;;;;;;;77.27;71.65;;;;;;;20.95;100.00;101354.17;2011431;71;31025;-82
2022/08/02 23:00:41;;;;;;;81.10;76.10;;;;;;;20.80;100.00;101361.23;2004872;71;30924;-84
2022/08/02 23:06:28;;;;;;;77.95;72.95;;;;;;;20.85;100.00;101354.81;2015502;71;31453;-84
2022/08/02 23:12:17;;;;;;;76.62;71.25;;;;;;;20.82;100.00;101358.33;2013870;71;30909;-82
2022/08/02 23:24:04;;;;;;;78.43;73.03;;;;;;;20.60;100.00;101364.84;1993828;71;30829;-81
2022/08/02 23:29:50;;;;;;;80.00;75.00;;;;;;;20.50;100.00;101368.87;1995306;71;30892;-81
2022/08/02 23:35:35;;;;;;;79.70;74.70;;;;;;;20.36;100.00;101373.95;2015436;71;30889;-81
2022/08/02 23:41:20;;;;;;;76.03;71.07;;;;;;;20.50;100.00;101363.81;2017099;71;30887;-80
2022/08/02 23:47:05;;;;;;;79.35;74.15;;;;;;;20.31;100.00;101365.66;2008577;71;30934;-82
2022/08/02 23:52:50;;;;;;;80.55;74.90;;;;;;;20.26;100.00;101368.63;1995840;71;30834;-81
2022/08/02 23:58:35;;;;;;;77.97;72.73;;;;;;;20.30;100.00;101369.06;2006827;71;30889;-81
